Time;durP1;ratioP1;P1;durP2;ratioP2;P2;SDS_P1;SDS_P2;PMS_P1;PMS_P2;Temp;Humidity;BMP_temperature;BMP_pressure;BME280_temperature;BME280_humidity;BME280_pressure;Samples;Min_cycle;Max_cycle;Signal;HPM_P1;HPM_P2
2022/10/28 00:02:15;;;;;;;65.00;60.90;;;;;;;15.40;94.78;97468.03;5092571;28;20709;-53
2022/10/28 00:04:41;;;;;;;69.87;65.60;;;;;;;15.48;94.41;97474.78;5092299;28;20165;-58
2022/10/28 00:07:06;;;;;;;60.93;57.33;;;;;;;15.52;94.04;97475.13;5073995;28;20197;-54
2022/10/28 00:09:32;;;;;;;65.87;61.90;;;;;;;15.46;94.58;97470.75;5091538;28;20244;-57
2022/10/28 00:11:57;;;;;;;55.57;52.20;;;;;;;15.34;95.92;97473.47;5092085;28;20287;-56
2022/10/28 00:14:23;;;;;;;15.00;13.47;;;;;;;15.24;97.82;97476.75;5092185;28;20690;-55
2022/10/28 00:16:48;;;;;;;15.35;14.00;;;;;;;15.16;99.22;97468.41;5092191;28;20183;-54
2022/10/28 00:19:15;;;;;;;12.70;10.30;;;;;;;15.02;100.00;97473.22;5090983;28;20645;-56
2022/10/28 00:21:41;;;;;;;14.00;12.60;;;;;;;14.96;100.00;97469.69;5092227;28;20165;-54
2022/10/28 00:24:08;;;;;;;13.70;8.37;;;;;;;14.89;100.00;97466.38;5095351;28;20785;-57
2022/10/28 00:26:35;;;;;;;17.40;11.60;;;;;;;14.95;100.00;97468.06;5095876;28;20172;-56
2022/10/28 00:29:13;;;;;;;13.43;12.37;;;;;;;15.00;100.00;97467.34;5096042;28;20196;-57
2022/10/28 00:31:39;;;;;;;21.67;20.00;;;;;;;14.96;100.00;97460.94;5096228;28;20284;-54
2022/10/28 00:34:09;;;;;;;28.43;26.33;;;;;;;14.80;100.00;97467.81;5095694;28;20678;-56
2022/10/28 00:36:37;;;;;;;21.40;19.53;;;;;;;14.80;100.00;97462.53;5095270;28;20180;-57
2022/10/28 00:39:11;;;;;;;23.63;21.97;;;;;;;14.64;100.00;97470.41;5095854;28;20181;-56
2022/10/28 00:41:38;;;;;;;24.23;22.27;;;;;;;14.70;100.00;97464.97;5095676;28;20604;-58
2022/10/28 00:44:38;;;;;;;35.43;33.10;;;;;;;14.65;100.00;97470.16;5095384;28;20181;-57
2022/10/28 00:47:09;;;;;;;18.73;16.93;;;;;;;14.60;100.00;97469.28;5092986;28;20603;-57
2022/10/28 00:49:34;;;;;;;21.70;19.93;;;;;;;14.51;100.00;97461.72;5095655;28;20176;-56
2022/10/28 00:52:07;;;;;;;23.50;21.73;;;;;;;14.48;100.00;97462.19;5095228;28;20189;-58
2022/10/28 00:54:34;;;;;;;24.67;22.50;;;;;;;14.55;100.00;97467.31;5095558;28;20165;-56
2022/10/28 00:57:03;;;;;;;21.23;19.23;;;;;;;14.48;100.00;97466.66;5095490;28;20197;-57
2022/10/28 00:59:40;;;;;;;15.97;13.57;;;;;;;14.50;100.00;97465.38;5095498;28;20204;-56
2022/10/28 01:02:05;;;;;;;13.07;11.97;;;;;;;14.37;100.00;97465.66;5095664;28;20172;-56
2022/10/28 01:04:31;;;;;;;14.17;12.87;;;;;;;14.43;100.00;97461.28;5094926;28;20173;-58
2022/10/28 01:06:57;;;;;;;23.33;21.60;;;;;;;14.40;100.00;97457.28;5095383;28;20192;-57
2022/10/28 01:09:23;;;;;;;22.07;20.20;;;;;;;14.40;100.00;97467.81;5094873;28;20175;-56
2022/10/28 01:12:12;;;;;;;21.40;19.37;;;;;;;14.44;100.00;97473.44;5094136;28;20645;-55
2022/10/28 01:14:46;;;;;;;18.53;16.83;;;;;;;14.50;100.00;97468.03;5095032;28;20255;-56
2022/10/28 01:17:38;;;;;;;17.30;15.63;;;;;;;14.56;100.00;97466.28;5094941;28;20200;-57
2022/10/28 01:20:06;;;;;;;15.57;14.27;;;;;;;14.64;100.00;97459.84;5076928;28;20263;-57
2022/10/28 01:22:31;;;;;;;15.87;14.43;;;;;;;14.66;100.00;97463.03;5094835;28;20168;-56
2022/10/28 01:25:06;;;;;;;15.90;14.63;;;;;;;14.62;100.00;97459.25;5094540;28;20828;-57
2022/10/28 01:27:34;;;;;;;14.83;13.43;;;;;;;14.65;100.00;97456.97;5082761;28;20234;-57
2022/10/28 01:30:11;;;;;;;14.67;13.27;;;;;;;14.67;100.00;97452.25;5094840;28;20169;-56
2022/10/28 01:33:03;;;;;;;12.57;11.47;;;;;;;14.67;100.00;97446.16;5094765;28;20192;-55
2022/10/28 01:35:36;;;;;;;10.70;9.70;;;;;;;14.68;100.00;97443.28;5078518;28;20204;-56
2022/10/28 01:38:29;;;;;;;10.57;9.57;;;;;;;14.61;100.00;97447.91;5094094;28;20204;-57
2022/10/28 01:41:11;;;;;;;10.27;9.27;;;;;;;14.64;100.00;97441.38;5094335;28;20593;-56
2022/10/28 01:43:36;;;;;;;9.63;8.67;;;;;;;14.60;100.00;97454.22;5080182;28;20191;-56
2022/10/28 01:46:07;;;;;;;11.40;8.43;;;;;;;14.59;100.00;97446.56;5092012;28;20232;-57
2022/10/28 01:48:44;;;;;;;12.60;9.20;;;;;;;14.59;100.00;97449.19;5092842;28;20214;-57
2022/10/28 01:51:23;;;;;;;11.07;8.60;;;;;;;14.60;100.00;97453.44;5076915;28;20197;-56
2022/10/28 01:53:52;;;;;;;14.03;9.63;;;;;;;14.62;100.00;97456.63;5094515;28;20164;-55
2022/10/28 01:56:23;;;;;;;10.67;9.67;;;;;;;14.63;100.00;97452.97;5094571;28;20250;-56
2022/10/28 01:58:49;;;;;;;18.93;11.10;;;;;;;14.65;100.00;97446.41;5093364;28;20275;-57
2022/10/28 02:01:16;;;;;;;12.20;11.07;;;;;;;14.69;100.00;97444.91;5093892;28;20184;-56
2022/10/28 02:03:41;;;;;;;15.47;14.07;;;;;;;14.64;100.00;97444.81;5094319;28;20235;-53
2022/10/28 02:06:16;;;;;;;14.60;13.23;;;;;;;14.61;100.00;97440.00;5094535;28;20176;-57
2022/10/28 02:09:09;;;;;;;17.50;16.27;;;;;;;14.60;100.00;97443.66;5094217;28;20199;-58
2022/10/28 02:11:58;;;;;;;17.03;14.53;;;;;;;14.56;100.00;97443.34;5079443;28;20201;-58
2022/10/28 02:14:37;;;;;;;17.30;15.77;;;;;;;14.67;100.00;97446.16;5094021;28;20347;-58
2022/10/28 02:17:18;;;;;;;18.07;16.73;;;;;;;14.64;100.00;97434.25;5093596;28;20223;-56
2022/10/28 02:19:50;;;;;;;18.27;16.97;;;;;;;14.62;100.00;97441.59;5093721;28;20706;-57
2022/10/28 02:22:25;;;;;;;15.70;14.17;;;;;;;14.61;100.00;97434.72;5094055;28;20164;-57
2022/10/28 02:25:01;;;;;;;15.27;13.93;;;;;;;14.63;100.00;97437.13;5093691;28;20255;-58
2022/10/28 02:28:06;;;;;;;13.53;12.30;;;;;;;14.63;100.00;97431.84;5093744;28;20204;-59
2022/10/28 02:30:48;;;;;;;12.97;11.53;;;;;;;14.64;100.00;97425.53;5093771;28;20176;-57
2022/10/28 02:33:18;;;;;;;14.57;12.23;;;;;;;14.55;100.00;97425.91;5093656;28;20192;-57
2022/10/28 02:35:49;;;;;;;12.93;11.80;;;;;;;14.55;100.00;97427.75;5092461;28;20168;-57
2022/10/28 02:38:20;;;;;;;13.47;11.87;;;;;;;14.60;100.00;97424.41;5092933;28;20257;-54
2022/10/28 02:40:51;;;;;;;15.17;13.80;;;;;;;14.52;100.00;97426.38;5093536;28;20578;-58
2022/10/28 02:43:19;;;;;;;15.40;13.07;;;;;;;14.51;100.00;97426.63;5092806;28;20181;-58
2022/10/28 02:45:50;;;;;;;12.40;11.23;;;;;;;14.60;100.00;97413.88;5091488;28;20562;-58
2022/10/28 02:48:25;;;;;;;12.63;10.50;;;;;;;14.50;100.00;97410.00;5084772;28;20207;-58
2022/10/28 02:50:59;;;;;;;12.70;11.40;;;;;;;14.51;100.00;97405.50;5093324;28;20290;-58
2022/10/28 02:53:32;;;;;;;16.17;14.90;;;;;;;14.41;100.00;97410.59;5093098;28;20662;-57
2022/10/28 02:56:01;;;;;;;18.20;16.90;;;;;;;14.47;100.00;97417.59;5092986;28;20165;-58
2022/10/28 02:58:26;;;;;;;19.53;18.07;;;;;;;14.46;100.00;97415.97;5093140;28;20212;-57
2022/10/28 03:00:52;;;;;;;22.07;20.27;;;;;;;14.50;100.00;97414.47;5093241;28;20160;-57
2022/10/28 03:03:18;;;;;;;16.33;15.13;;;;;;;14.54;100.00;97416.38;5092831;28;20576;-58
2022/10/28 03:05:43;;;;;;;13.40;10.30;;;;;;;14.60;100.00;97417.28;5092894;28;20172;-58
2022/10/28 03:08:09;;;;;;;14.47;11.20;;;;;;;14.63;100.00;97411.53;5092518;28;20709;-57
2022/10/28 03:10:34;;;;;;;10.67;9.57;;;;;;;14.67;100.00;97419.78;5092436;28;20176;-58
2022/10/28 03:12:59;;;;;;;11.13;9.83;;;;;;;14.76;100.00;97421.00;5092610;28;20183;-57
2022/10/28 03:15:25;;;;;;;10.20;9.23;;;;;;;14.76;100.00;97429.75;5092603;28;20175;-58
2022/10/28 03:17:50;;;;;;;9.63;8.73;;;;;;;14.76;100.00;97418.38;5092582;28;20563;-58
2022/10/28 03:20:16;;;;;;;9.43;8.63;;;;;;;14.89;100.00;97418.06;5092834;28;20176;-56
2022/10/28 03:22:43;;;;;;;12.63;11.57;;;;;;;14.89;100.00;97428.63;5087759;28;20648;-56
2022/10/28 03:25:08;;;;;;;12.37;11.17;;;;;;;14.96;100.00;97431.91;5092261;28;20192;-56
2022/10/28 03:27:34;;;;;;;12.10;8.43;;;;;;;14.96;100.00;97424.00;5092311;28;20204;-58
2022/10/28 03:29:59;;;;;;;14.27;12.97;;;;;;;15.04;100.00;97420.19;5092061;28;20172;-58
2022/10/28 03:32:25;;;;;;;31.57;29.50;;;;;;;15.03;100.00;97414.09;5092044;28;20197;-58
2022/10/28 03:34:50;;;;;;;28.60;26.70;;;;;;;15.10;100.00;97420.00;5092304;28;20208;-57
2022/10/28 03:37:16;;;;;;;16.00;14.90;;;;;;;15.16;100.00;97415.59;5091999;28;20571;-58
2022/10/28 03:39:41;;;;;;;15.87;13.63;;;;;;;15.22;99.90;97419.91;5092398;28;20257;-58
2022/10/28 03:42:06;;;;;;;26.00;23.90;;;;;;;15.23;99.72;97419.69;5092420;28;20292;-56
2022/10/28 03:44:32;;;;;;;34.23;31.47;;;;;;;15.26;99.49;97413.13;5092459;28;20180;-55
2022/10/28 03:46:57;;;;;;;39.13;36.73;;;;;;;15.26;99.33;97411.31;5089915;28;20236;-56
2022/10/28 03:49:22;;;;;;;36.50;34.10;;;;;;;15.28;99.19;97416.31;5092035;28;20263;-54
2022/10/28 03:51:48;;;;;;;33.67;31.60;;;;;;;15.27;99.27;97420.81;5092042;28;20208;-56
2022/10/28 03:54:13;;;;;;;31.47;29.30;;;;;;;15.28;99.42;97414.47;5092500;28;20187;-57
2022/10/28 03:56:39;;;;;;;25.17;23.20;;;;;;;15.25;99.46;97416.81;5093316;28;20225;-56
2022/10/28 03:59:05;;;;;;;26.23;24.27;;;;;;;15.21;99.77;97421.75;5099051;28;20180;-56
2022/10/28 04:01:31;;;;;;;22.67;21.17;;;;;;;15.22;99.75;97418.09;5098962;28;20165;-57
2022/10/28 04:03:56;;;;;;;23.80;21.97;;;;;;;15.26;99.62;97423.69;5098781;28;20180;-56
2022/10/28 04:06:22;;;;;;;29.93;27.70;;;;;;;15.24;99.34;97409.94;5098916;28;20179;-56
2022/10/28 04:08:47;;;;;;;35.85;33.50;;;;;;;15.19;99.70;97408.00;5098066;28;20223;-53
2022/10/28 04:11:13;;;;;;;40.10;37.40;;;;;;;15.16;100.00;97407.66;5099100;28;20296;-54
2022/10/28 04:13:38;;;;;;;47.33;44.33;;;;;;;15.18;99.75;97405.59;5099035;28;20199;-55
2022/10/28 04:16:04;;;;;;;40.53;37.83;;;;;;;15.09;99.79;97402.56;5097949;28;20177;-52
2022/10/28 04:18:29;;;;;;;38.33;35.60;;;;;;;15.19;99.38;97404.56;5099001;28;20204;-53
2022/10/28 04:20:55;;;;;;;41.30;38.37;;;;;;;15.21;99.36;97403.28;5099353;28;20175;-57
2022/10/28 04:23:20;;;;;;;39.57;36.87;;;;;;;15.20;99.68;97401.69;5098489;28;20176;-52
2022/10/28 04:25:45;;;;;;;36.17;33.90;;;;;;;15.10;99.86;97409.44;5098943;28;20168;-57
2022/10/28 04:28:11;;;;;;;32.73;30.50;;;;;;;15.12;99.74;97406.56;5098841;28;20204;-58
2022/10/28 04:30:36;;;;;;;33.57;31.37;;;;;;;15.02;100.00;97393.19;5098731;28;20259;-58
2022/10/28 04:33:02;;;;;;;33.73;31.70;;;;;;;15.01;100.00;97394.22;5098578;28;20188;-56
2022/10/28 04:35:27;;;;;;;47.13;44.20;;;;;;;15.09;100.00;97397.28;5079834;28;20211;-53
2022/10/28 04:37:53;;;;;;;47.33;43.77;;;;;;;15.03;100.00;97400.88;5098496;28;20257;-54
2022/10/28 04:40:18;;;;;;;47.07;44.00;;;;;;;15.04;100.00;97402.50;5098560;28;20233;-56
2022/10/28 04:42:43;;;;;;;32.17;30.07;;;;;;;15.05;100.00;97400.63;5098451;28;20283;-56
2022/10/28 04:45:09;;;;;;;21.53;19.73;;;;;;;14.89;100.00;97399.59;5098593;28;20177;-53
2022/10/28 04:47:35;;;;;;;14.77;12.60;;;;;;;14.85;100.00;97396.63;5095311;28;20680;-57
2022/10/28 04:50:01;;;;;;;9.37;8.10;;;;;;;14.78;100.00;97393.34;5098387;28;20180;-57
2022/10/28 04:52:26;;;;;;;7.97;7.17;;;;;;;14.64;100.00;97391.25;5080439;28;20220;-54
2022/10/28 04:54:51;;;;;;;9.57;7.80;;;;;;;14.63;100.00;97395.72;5098493;28;20177;-52
2022/10/28 04:57:17;;;;;;;8.60;7.73;;;;;;;14.53;100.00;97404.25;5098431;28;20224;-56
2022/10/28 04:59:42;;;;;;;14.63;8.50;;;;;;;14.56;100.00;97392.41;5098052;28;20200;-56
2022/10/28 05:02:08;;;;;;;9.60;8.70;;;;;;;14.51;100.00;97403.69;5079459;28;20180;-58
2022/10/28 05:04:33;;;;;;;14.07;7.97;;;;;;;14.48;100.00;97404.16;5098799;28;20585;-58
2022/10/28 05:06:59;;;;;;;10.10;8.67;;;;;;;14.55;100.00;97406.63;5098479;28;20208;-58
2022/10/28 05:09:24;;;;;;;11.87;9.07;;;;;;;14.70;100.00;97396.38;5094463;28;20181;-58
2022/10/28 05:11:49;;;;;;;12.23;9.37;;;;;;;14.73;100.00;97400.38;5077050;28;20192;-58
2022/10/28 05:14:15;;;;;;;11.87;8.17;;;;;;;14.82;100.00;97394.44;5094938;28;20176;-58
2022/10/28 05:16:40;;;;;;;9.50;8.53;;;;;;;14.90;100.00;97385.34;5095209;28;20185;-58
2022/10/28 05:19:06;;;;;;;18.17;16.97;;;;;;;15.08;99.82;97389.59;5095375;28;20204;-58
2022/10/28 05:21:31;;;;;;;23.10;21.27;;;;;;;15.16;97.66;97386.53;5094965;28;20199;-57
2022/10/28 05:23:59;;;;;;;10.60;9.60;;;;;;;15.20;95.96;97380.56;5095006;28;20176;-58
2022/10/28 05:26:25;;;;;;;19.23;17.73;;;;;;;15.28;95.14;97368.78;5095116;28;20242;-58
2022/10/28 05:28:50;;;;;;;22.07;20.27;;;;;;;15.26;94.56;97366.41;5094759;28;20200;-59
2022/10/28 05:31:17;;;;;;;14.53;13.10;;;;;;;15.32;93.83;97365.41;5094365;28;20241;-59
2022/10/28 05:33:42;;;;;;;10.43;8.10;;;;;;;15.34;93.33;97365.97;5094930;28;20177;-58
2022/10/28 05:36:08;;;;;;;13.90;12.20;;;;;;;15.44;92.43;97367.16;5094343;28;20679;-59
2022/10/28 05:38:33;;;;;;;13.90;12.60;;;;;;;15.44;92.34;97372.44;5094834;28;20237;-59
2022/10/28 05:40:59;;;;;;;21.87;20.00;;;;;;;15.40;92.66;97374.78;5094131;28;20177;-61
2022/10/28 05:43:24;;;;;;;13.93;12.60;;;;;;;15.36;92.96;97378.94;5094636;28;20267;-59
2022/10/28 05:45:54;;;;;;;17.40;15.87;;;;;;;15.32;92.94;97373.34;5092087;28;20637;-58
2022/10/28 05:48:20;;;;;;;15.10;10.93;;;;;;;15.28;93.56;97376.69;5091709;28;20204;-55
2022/10/28 05:50:45;;;;;;;16.37;12.33;;;;;;;15.27;93.34;97375.91;5093943;28;20252;-54
2022/10/28 05:53:11;;;;;;;16.23;14.27;;;;;;;15.26;93.15;97373.53;5094488;28;20613;-54
2022/10/28 05:55:36;;;;;;;20.37;18.87;;;;;;;15.26;92.78;97379.59;5094484;28;20177;-57
2022/10/28 05:58:02;;;;;;;19.83;18.30;;;;;;;15.31;90.73;97374.41;5094148;28;20197;-57
2022/10/28 06:00:28;;;;;;;20.57;18.53;;;;;;;15.31;91.05;97376.25;5094246;28;20594;-54
2022/10/28 06:03:08;;;;;;;20.73;19.37;;;;;;;15.36;90.00;97376.31;5094286;28;20532;-54
2022/10/28 06:05:33;;;;;;;14.27;13.03;;;;;;;15.40;89.50;97380.84;5094225;28;20200;-57
2022/10/28 06:07:59;;;;;;;12.47;11.33;;;;;;;15.32;90.32;97381.25;5094091;28;20300;-53
2022/10/28 06:10:24;;;;;;;9.13;8.40;;;;;;;15.39;89.85;97381.09;5093248;28;20180;-54
2022/10/28 06:12:50;;;;;;;14.60;8.30;;;;;;;15.37;89.65;97378.72;5094050;28;20198;-57
2022/10/28 06:15:15;;;;;;;9.17;7.50;;;;;;;15.40;89.25;97378.22;5093106;28;20161;-57
2022/10/28 06:17:41;;;;;;;9.53;7.50;;;;;;;15.37;89.30;97384.00;5094074;28;20261;-57
2022/10/28 06:20:06;;;;;;;13.73;12.33;;;;;;;15.34;88.80;97387.09;5093580;28;20179;-58
2022/10/28 06:22:32;;;;;;;22.77;21.20;;;;;;;15.38;88.29;97392.69;5094259;28;20161;-56
2022/10/28 06:24:57;;;;;;;24.80;22.83;;;;;;;15.37;88.58;97399.03;5093677;28;20588;-54
2022/10/28 06:27:23;;;;;;;18.23;16.50;;;;;;;15.47;88.10;97396.56;5093644;28;20188;-53
2022/10/28 06:29:48;;;;;;;9.47;8.60;;;;;;;15.47;87.26;97399.19;5093810;28;20164;-53
2022/10/28 06:32:14;;;;;;;9.43;8.37;;;;;;;15.52;86.45;97401.13;5093692;28;20258;-51
2022/10/28 06:34:39;;;;;;;13.50;12.33;;;;;;;15.57;85.90;97398.56;5093070;28;20173;-50
2022/10/28 06:37:09;;;;;;;15.87;14.77;;;;;;;15.63;85.61;97394.94;5092581;28;20680;-55
2022/10/28 06:39:36;;;;;;;17.77;15.13;;;;;;;15.63;85.19;97402.88;5093415;28;20184;-53
2022/10/28 06:42:02;;;;;;;16.17;12.90;;;;;;;15.70;84.35;97392.94;5093382;28;20633;-52
2022/10/28 06:44:27;;;;;;;18.07;16.37;;;;;;;15.84;83.69;97388.88;5092920;28;20191;-60
2022/10/28 06:46:53;;;;;;;38.27;35.60;;;;;;;15.89;83.23;97393.44;5090934;28;20311;-58
2022/10/28 06:49:18;;;;;;;54.00;50.33;;;;;;;15.90;82.84;97392.38;5092691;28;20597;-56
2022/10/28 06:51:44;;;;;;;44.53;41.55;;;;;;;15.96;82.90;97392.22;5093208;28;20192;-57
2022/10/28 06:54:09;;;;;;;32.65;30.27;;;;;;;15.96;84.03;97389.56;5081917;28;20179;-55
2022/10/28 06:56:34;;;;;;;16.88;15.48;;;;;;;15.86;85.78;97391.28;5086763;28;20172;-52
2022/10/28 06:59:00;;;;;;;12.37;11.27;;;;;;;15.76;86.54;97391.97;5093546;28;20193;-58
2022/10/28 07:01:25;;;;;;;24.40;22.63;;;;;;;15.75;86.97;97383.22;5092582;28;20164;-52
2022/10/28 07:03:51;;;;;;;38.28;35.15;;;;;;;15.79;87.39;97389.63;5093260;28;20173;-56
2022/10/28 07:06:16;;;;;;;13.60;12.40;;;;;;;16.49;100.00;97380.94;5075043;28;20524;-60
2022/10/28 07:08:42;;;;;;;12.13;10.93;;;;;;;16.69;96.70;97380.34;5092253;28;20560;-62
2022/10/28 07:11:07;;;;;;;15.77;14.37;;;;;;;16.50;88.49;97374.56;5092626;28;20216;-57
2022/10/28 07:13:33;;;;;;;39.38;36.65;;;;;;;16.12;87.76;97380.78;5092521;28;20168;-56
2022/10/28 07:15:59;;;;;;;59.87;55.57;;;;;;;15.69;89.98;97384.22;5092461;28;20666;-57
2022/10/28 07:18:27;;;;;;;32.92;30.88;;;;;;;15.87;87.54;97382.31;5092940;28;20197;-57
2022/10/28 07:20:53;;;;;;;25.80;24.07;;;;;;;15.91;86.03;97386.06;5074532;28;20172;-53
2022/10/28 07:23:18;;;;;;;20.53;18.93;;;;;;;16.03;84.15;97376.97;5091911;28;20310;-56
2022/10/28 07:25:53;;;;;;;19.03;17.20;;;;;;;16.20;82.58;97385.66;5092428;28;20179;-54
2022/10/28 07:28:19;;;;;;;27.70;25.43;;;;;;;16.32;81.42;97395.28;5092231;28;20282;-56
2022/10/28 07:30:45;;;;;;;45.58;42.45;;;;;;;16.39;81.03;97396.69;5092643;28;20191;-55
2022/10/28 07:33:10;;;;;;;99.27;93.60;;;;;;;16.48;80.37;97410.28;5090040;28;20212;-54
2022/10/28 07:35:36;;;;;;;38.80;36.42;;;;;;;16.54;79.10;97404.00;5078885;28;20181;-54
2022/10/28 07:38:01;;;;;;;40.85;38.08;;;;;;;16.56;78.88;97402.69;5083835;28;20196;-54
2022/10/28 07:40:26;;;;;;;31.40;29.27;;;;;;;16.59;79.14;97414.66;5092569;28;20652;-54
2022/10/28 07:42:52;;;;;;;17.38;15.82;;;;;;;16.48;80.41;97420.88;5092403;28;20251;-53
2022/10/28 07:45:18;;;;;;;28.20;26.07;;;;;;;16.43;81.47;97424.25;5092053;28;20276;-55
2022/10/28 07:47:43;;;;;;;17.95;16.20;;;;;;;16.46;80.87;97415.00;5089848;28;20236;-57
2022/10/28 07:50:10;;;;;;;17.00;15.60;;;;;;;16.35;81.33;97421.25;5092494;28;20212;-57
2022/10/28 07:52:35;;;;;;;13.55;12.27;;;;;;;16.33;80.65;97418.06;5091913;28;20238;-55
2022/10/28 07:55:03;;;;;;;64.45;60.50;;;;;;;16.46;77.91;97429.03;5081705;28;20670;-64
2022/10/28 07:57:28;;;;;;;66.53;62.88;;;;;;;16.65;75.94;97421.63;5088769;28;20193;-53
2022/10/28 07:59:54;;;;;;;29.70;27.88;;;;;;;16.86;74.27;97419.97;5075605;28;20304;-58
2022/10/28 08:02:22;;;;;;;28.27;26.33;;;;;;;17.07;73.07;97423.56;5072435;28;20575;-56
2022/10/28 08:04:49;;;;;;;32.13;29.83;;;;;;;17.14;72.31;97424.19;5079179;28;20251;-54
2022/10/28 08:07:14;;;;;;;42.67;39.90;;;;;;;17.33;71.17;97423.53;5092225;28;20220;-58
2022/10/28 08:09:40;;;;;;;26.42;24.67;;;;;;;17.40;70.44;97432.06;5091219;28;20281;-57
2022/10/28 08:12:07;;;;;;;18.67;17.42;;;;;;;17.52;70.09;97423.13;5091018;28;20203;-58
2022/10/28 08:14:33;;;;;;;19.85;18.60;;;;;;;17.57;69.99;97425.81;5072244;28;20264;-55
2022/10/28 08:16:59;;;;;;;14.50;13.50;;;;;;;17.68;69.38;97425.66;5071723;28;20216;-57
2022/10/28 08:19:24;;;;;;;130.30;122.70;;;;;;;17.65;68.78;97426.19;5071572;28;20165;-57
2022/10/28 08:21:49;;;;;;;147.77;139.55;;;;;;;17.73;69.03;97427.53;5089800;28;20161;-57
2022/10/28 08:24:15;;;;;;;250.88;236.30;;;;;;;17.73;69.11;97431.00;5091013;28;20172;-53
2022/10/28 08:26:40;;;;;;;280.13;263.52;;;;;;;17.74;68.99;97434.44;5092013;28;20204;-55
2022/10/28 08:29:06;;;;;;;392.00;368.00;;;;;;;17.86;68.50;97432.41;5091911;28;20173;-54
2022/10/28 08:31:32;;;;;;;455.42;427.58;;;;;;;17.82;68.41;97432.13;5091613;28;20664;-57
2022/10/28 08:33:58;;;;;;;476.85;448.13;;;;;;;17.90;68.53;97430.03;5090999;28;20184;-58
2022/10/28 08:36:23;;;;;;;486.27;457.27;;;;;;;17.96;67.67;97431.66;5092025;28;20648;-58
2022/10/28 08:38:49;;;;;;;428.10;402.55;;;;;;;17.98;67.43;97445.47;5091745;28;20201;-57
2022/10/28 08:41:37;;;;;;;335.88;316.10;;;;;;;18.03;67.11;97438.34;5091724;28;20177;-56
2022/10/28 08:44:15;;;;;;;251.50;236.57;;;;;;;18.17;65.66;97439.44;5093639;28;20272;-56
2022/10/28 08:46:58;;;;;;;197.18;185.48;;;;;;;18.30;65.60;97443.50;5091674;28;20236;-58
2022/10/28 08:49:24;;;;;;;141.45;132.52;;;;;;;18.45;64.69;97432.13;5092759;28;20184;-58
2022/10/28 08:52:02;;;;;;;99.28;92.72;;;;;;;18.55;64.06;97435.66;5093926;28;20191;-58
2022/10/28 08:54:52;;;;;;;135.00;126.70;;;;;;;18.61;63.44;97434.59;5076435;28;20176;-53
2022/10/28 08:57:24;;;;;;;112.97;106.43;;;;;;;18.74;63.98;97433.31;5094827;28;20231;-58
2022/10/28 08:59:53;;;;;;;190.07;178.95;;;;;;;18.83;63.43;97437.06;5095066;28;20176;-52
2022/10/28 09:02:24;;;;;;;233.43;219.45;;;;;;;18.96;63.54;97436.53;5096356;28;20169;-57
2022/10/28 09:04:58;;;;;;;210.80;198.13;;;;;;;18.85;63.93;97436.78;5095349;28;20157;-55
2022/10/28 09:07:24;;;;;;;172.02;161.88;;;;;;;18.93;64.39;97428.31;5094653;28;20200;-58
2022/10/28 09:09:52;;;;;;;259.02;243.40;;;;;;;19.05;63.92;97434.97;5093813;28;20547;-58
2022/10/28 09:12:26;;;;;;;230.77;217.38;;;;;;;19.18;63.30;97438.13;5094792;28;20188;-55
2022/10/28 09:15:00;;;;;;;171.93;162.07;;;;;;;19.09;64.08;97444.00;5094831;28;20176;-58
2022/10/28 09:17:41;;;;;;;113.18;106.63;;;;;;;19.13;63.55;97444.25;5094265;28;20199;-58
2022/10/28 09:20:17;;;;;;;114.05;107.65;;;;;;;19.23;63.04;97441.59;5093424;28;20358;-57
2022/10/28 09:22:56;;;;;;;99.72;94.05;;;;;;;19.13;63.86;97457.53;5076124;28;20164;-61
2022/10/28 09:25:40;;;;;;;93.47;88.28;;;;;;;19.32;63.51;97463.16;5089803;28;20190;-57
2022/10/28 09:28:17;;;;;;;101.97;96.15;;;;;;;19.29;62.83;97463.66;5094570;28;20228;-56
2022/10/28 09:31:07;;;;;;;90.88;85.85;;;;;;;19.22;64.04;97471.94;5094062;28;20180;-57
2022/10/28 09:34:02;;;;;;;82.00;77.22;;;;;;;19.19;64.86;97476.94;5088568;28;20294;-58
2022/10/28 09:36:35;;;;;;;74.10;69.78;;;;;;;19.29;65.14;97456.50;5049791;28;20185;-58
2022/10/28 09:39:04;;;;;;;109.72;103.47;;;;;;;19.48;65.20;97464.78;5093475;28;20225;-59
2022/10/28 09:41:37;;;;;;;191.45;179.82;;;;;;;19.40;66.22;97444.00;5094373;28;20203;-58
2022/10/28 09:44:11;;;;;;;42.00;39.08;;;;;;;19.06;70.57;97371.97;5093193;28;20176;-57
2022/10/28 09:46:38;;;;;;;33.47;30.95;;;;;;;18.63;76.21;97390.00;5091963;28;20238;-58
2022/10/28 09:49:30;;;;;;;218.00;205.68;;;;;;;18.73;73.04;97410.44;5092442;28;20215;-58
2022/10/28 09:52:09;;;;;;;101.65;95.80;;;;;;;19.02;68.47;97424.03;5093434;28;20219;-58
2022/10/28 09:54:42;;;;;;;95.68;89.90;;;;;;;19.27;67.09;97437.38;5092837;28;20176;-57
2022/10/28 09:57:08;;;;;;;82.47;77.70;;;;;;;19.60;64.76;97440.56;5093299;28;20531;-58
2022/10/28 09:59:33;;;;;;;103.40;97.15;;;;;;;19.57;64.70;97441.88;5093935;28;20255;-55
2022/10/28 10:01:59;;;;;;;93.32;87.90;;;;;;;19.63;64.38;97435.50;5094160;28;20660;-58
2022/10/28 10:04:27;;;;;;;90.00;84.85;;;;;;;19.75;64.51;97437.88;5093831;28;20181;-58
2022/10/28 10:06:55;;;;;;;95.18;89.28;;;;;;;19.97;64.16;97434.91;5093821;28;20169;-58
2022/10/28 10:09:27;;;;;;;28.48;26.50;;;;;;;20.03;63.41;97431.16;5079427;28;20263;-54
2022/10/28 10:11:59;;;;;;;35.88;33.17;;;;;;;19.98;63.30;97425.84;5093961;28;20199;-58
2022/10/28 10:14:33;;;;;;;39.20;36.47;;;;;;;19.94;63.62;97433.59;5093230;28;20169;-58
2022/10/28 10:17:14;;;;;;;23.90;21.83;;;;;;;19.97;64.48;97432.25;5092960;28;20292;-58
2022/10/28 10:19:59;;;;;;;39.63;37.00;;;;;;;20.00;64.88;97427.19;5093961;28;20172;-58
2022/10/28 10:22:33;;;;;;;40.55;37.83;;;;;;;20.12;64.27;97435.66;5093709;28;20176;-57
2022/10/28 10:24:59;;;;;;;12.25;11.07;;;;;;;20.31;63.62;97435.84;5090297;28;20191;-58
2022/10/28 10:27:26;;;;;;;45.80;42.78;;;;;;;20.39;62.02;97453.97;5085425;28;20207;-57
2022/10/28 10:29:53;;;;;;;32.05;29.98;;;;;;;20.39;62.42;97464.63;5093743;28;20176;-58
2022/10/28 10:32:28;;;;;;;63.83;60.15;;;;;;;20.51;62.76;97458.94;5092911;28;20554;-58
2022/10/28 10:35:00;;;;;;;19.35;17.45;;;;;;;20.33;64.52;97457.72;5093246;28;20180;-59
2022/10/28 10:37:27;;;;;;;14.85;13.63;;;;;;;20.24;65.46;97417.50;5092565;28;20203;-59
2022/10/28 10:40:21;;;;;;;24.17;21.98;;;;;;;20.28;66.80;97394.56;5092587;28;20176;-53
2022/10/28 10:42:47;;;;;;;94.70;89.10;;;;;;;20.22;68.73;97416.19;5086304;28;20196;-61
2022/10/28 10:45:25;;;;;;;106.90;100.68;;;;;;;20.35;68.41;97442.25;5092915;28;20612;-54
2022/10/28 10:48:13;;;;;;;113.63;106.10;;;;;;;20.49;66.38;97445.94;5086394;28;20243;-58
2022/10/28 10:50:40;;;;;;;38.58;35.97;;;;;;;20.51;64.79;97430.44;5093227;28;20181;-58
2022/10/28 10:53:17;;;;;;;91.03;85.68;;;;;;;20.46;67.53;97409.19;5074465;28;20545;-58
2022/10/28 10:55:49;;;;;;;85.97;80.68;;;;;;;20.47;69.09;97388.66;5092240;28;20172;-56
2022/10/28 10:58:19;;;;;;;59.15;55.80;;;;;;;20.39;69.44;97399.91;5091915;28;20650;-58
2022/10/28 11:00:50;;;;;;;59.67;56.22;;;;;;;20.44;68.61;97424.66;5092310;28;20598;-56
2022/10/28 11:03:54;;;;;;;67.40;63.17;;;;;;;20.40;65.40;97420.91;5091882;28;20260;-58
2022/10/28 11:06:26;;;;;;;44.35;41.70;;;;;;;20.45;65.20;97409.47;5091665;28;20629;-58
2022/10/28 11:09:19;;;;;;;99.65;93.95;;;;;;;20.43;68.26;97420.38;5091886;28;20281;-58
2022/10/28 11:11:44;;;;;;;16.73;15.20;;;;;;;20.43;70.37;97416.94;5077839;28;20193;-53
2022/10/28 11:14:12;;;;;;;29.05;26.95;;;;;;;20.39;71.94;97421.22;5092176;28;20525;-56
2022/10/28 11:16:51;;;;;;;36.30;33.60;;;;;;;20.41;72.70;97414.53;5092065;28;20227;-57
2022/10/28 11:19:34;;;;;;;46.88;43.50;;;;;;;20.26;73.12;97412.72;5092249;28;20203;-55
2022/10/28 11:22:18;;;;;;;32.67;30.50;;;;;;;20.19;73.53;97416.72;5092194;28;20710;-56
2022/10/28 11:25:21;;;;;;;22.23;20.48;;;;;;;20.61;70.41;97403.78;5087520;28;20229;-55
2022/10/28 11:28:15;;;;;;;35.38;33.20;;;;;;;20.56;70.74;97419.00;5091523;28;20201;-57